createdAt,value
2022-12-14T00:02:09.657Z,-9.64
2022-12-14T00:07:11.831Z,-9.67
2022-12-14T00:12:13.907Z,-9.64
2022-12-14T00:17:17.383Z,-9.63
2022-12-14T00:22:19.462Z,-9.70
2022-12-14T00:27:21.528Z,-9.80
2022-12-14T00:32:25.014Z,-9.91
2022-12-14T00:37:28.506Z,-9.93
2022-12-14T00:42:30.563Z,-9.99
2022-12-14T00:47:40.398Z,-10.03
2022-12-14T00:52:42.913Z,-10.07
2022-12-14T00:57:45.038Z,-10.04
2022-12-14T01:02:48.390Z,-10.02
2022-12-14T01:07:50.561Z,-9.98
2022-12-14T01:12:52.802Z,-9.92
2022-12-14T01:17:58.315Z,-9.97
2022-12-14T01:23:00.473Z,-10.04
2022-12-14T01:28:04.447Z,-10.15
2022-12-14T01:33:08.093Z,-10.17
2022-12-14T01:38:10.611Z,-10.24
2022-12-14T01:43:14.204Z,-10.36
2022-12-14T01:48:18.764Z,-10.30
2022-12-14T01:53:22.806Z,-10.23
2022-12-14T01:58:27.258Z,-10.14
2022-12-14T02:03:33.893Z,-10.30
2022-12-14T02:08:39.008Z,-10.40
2022-12-14T02:13:42.745Z,-10.48
2022-12-14T02:18:45.840Z,-10.46
2022-12-14T02:24:37.449Z,-10.49
2022-12-14T02:29:53.244Z,-10.54
2022-12-14T02:35:00.155Z,-10.57
2022-12-14T02:40:23.876Z,-10.70
2022-12-14T02:45:35.546Z,-10.60
2022-12-14T02:50:44.137Z,-10.76
2022-12-14T02:55:50.267Z,-10.80
2022-12-14T03:00:55.029Z,-10.69
2022-12-14T03:05:58.520Z,-10.77
2022-12-14T03:11:04.824Z,-10.70
2022-12-14T03:16:13.395Z,-10.49
2022-12-14T03:21:21.430Z,-10.39
2022-12-14T03:26:29.934Z,-10.39
2022-12-14T03:31:38.084Z,-10.42
2022-12-14T03:36:44.315Z,-10.48
2022-12-14T03:41:50.837Z,-10.50
2022-12-14T03:47:01.539Z,-10.42
2022-12-14T03:52:10.351Z,-10.44
2022-12-14T03:57:20.949Z,-10.44
2022-12-14T04:02:29.975Z,-10.43
2022-12-14T04:07:40.787Z,-10.48
2022-12-14T04:12:49.452Z,-10.40
2022-12-14T04:18:00.252Z,-10.40
2022-12-14T04:23:07.664Z,-10.40
2022-12-14T04:28:14.329Z,-10.34
2022-12-14T04:33:18.331Z,-10.35
2022-12-14T04:38:24.556Z,-10.40
2022-12-14T04:43:31.108Z,-10.47
2022-12-14T04:48:39.443Z,-10.56
2022-12-14T04:53:46.746Z,-10.47
2022-12-14T04:58:49.297Z,-10.50
2022-12-14T05:04:02.217Z,-10.42
2022-12-14T05:09:13.081Z,-10.46
2022-12-14T05:14:21.536Z,-10.45
2022-12-14T05:19:25.348Z,-10.40
2022-12-14T05:24:27.599Z,-10.34
2022-12-14T05:29:29.718Z,-10.20
2022-12-14T05:34:33.433Z,-10.25
2022-12-14T05:39:35.291Z,-10.24
2022-12-14T05:44:37.844Z,-10.18
2022-12-14T05:49:41.382Z,-10.06
2022-12-14T05:54:43.604Z,-10.13
2022-12-14T05:59:45.830Z,-10.12
2022-12-14T06:04:49.467Z,-10.09
2022-12-14T06:09:51.896Z,-10.03
2022-12-14T06:14:53.885Z,-10.00
2022-12-14T06:19:57.485Z,-9.95
2022-12-14T06:24:59.708Z,-9.99
2022-12-14T06:30:02.080Z,-10.03
2022-12-14T06:35:07.012Z,-10.09
2022-12-14T06:40:10.724Z,-10.10
2022-12-14T06:45:12.694Z,-10.13
2022-12-14T06:50:16.621Z,-10.17
2022-12-14T06:55:18.767Z,-10.16
2022-12-14T07:00:22.457Z,-10.03
2022-12-14T07:05:26.128Z,-10.04
2022-12-14T07:10:28.283Z,-10.03
2022-12-14T07:15:30.426Z,-10.03
2022-12-14T07:20:34.120Z,-10.06
2022-12-14T07:25:36.265Z,-10.02
2022-12-14T07:30:38.398Z,-9.98
2022-12-14T07:35:42.098Z,-9.99
2022-12-14T07:40:44.494Z,-9.92
2022-12-14T07:45:46.867Z,-9.87
2022-12-14T07:50:50.183Z,-9.83
2022-12-14T07:55:52.376Z,-9.71
2022-12-14T08:00:54.527Z,-9.59
2022-12-14T08:05:58.405Z,-9.53
2022-12-14T08:11:01.482Z,-9.42
2022-12-14T08:16:03.896Z,-9.37
2022-12-14T08:21:10.034Z,-9.27
2022-12-14T08:26:12.368Z,-9.12
2022-12-14T08:31:16.673Z,-8.96
2022-12-14T08:36:22.019Z,-8.86
2022-12-14T08:41:25.004Z,-8.75
2022-12-14T08:46:28.920Z,-8.55
2022-12-14T08:51:32.323Z,-8.24
2022-12-14T08:56:34.475Z,-7.98
2022-12-14T09:01:36.729Z,-7.90
2022-12-14T09:06:40.546Z,-7.70
2022-12-14T09:11:42.875Z,-7.45
2022-12-14T09:16:45.056Z,-7.19
2022-12-14T09:21:48.701Z,-7.12
2022-12-14T09:26:51.325Z,-6.94
2022-12-14T09:31:53.978Z,-6.78
2022-12-14T09:36:57.581Z,-6.51
2022-12-14T09:42:13.783Z,-6.19
2022-12-14T09:47:19.855Z,-5.81
2022-12-14T09:52:30.173Z,-5.47
2022-12-14T09:57:38.426Z,-4.33
2022-12-14T10:02:55.816Z,-4.12
2022-12-14T10:08:07.071Z,-3.45
2022-12-14T10:13:21.863Z,-3.53
2022-12-14T10:19:02.143Z,-3.53
2022-12-14T10:24:12.749Z,-3.38
2022-12-14T10:29:21.064Z,-3.41
2022-12-14T10:34:28.189Z,-3.60
2022-12-14T10:39:43.871Z,-3.86
2022-12-14T10:50:31.727Z,-3.48
2022-12-14T10:55:39.808Z,-3.16
2022-12-14T11:00:41.683Z,-3.22
2022-12-14T11:05:53.205Z,-2.61
2022-12-14T11:11:11.581Z,-1.76
2022-12-14T11:16:19.441Z,-2.52
2022-12-14T11:21:29.946Z,-2.83
2022-12-14T11:26:36.705Z,-3.13
2022-12-14T11:31:40.121Z,-3.47
2022-12-14T11:36:42.704Z,-3.45
2022-12-14T11:41:48.283Z,-3.47
2022-12-14T11:46:53.672Z,-3.54
2022-12-14T11:51:59.278Z,-3.45
2022-12-14T11:57:06.266Z,-3.37
2022-12-14T12:02:17.407Z,-3.33
2022-12-14T12:07:26.154Z,-3.33
2022-12-14T12:12:30.587Z,-3.49
2022-12-14T12:17:41.468Z,-3.36
2022-12-14T12:22:48.317Z,-3.27
2022-12-14T12:28:00.483Z,-3.49
2022-12-14T12:33:12.008Z,-3.52
2022-12-14T12:38:22.443Z,-3.73
2022-12-14T12:43:30.869Z,-3.92
2022-12-14T12:48:37.484Z,-4.07
2022-12-14T12:53:44.671Z,-4.25
2022-12-14T12:58:53.143Z,-4.47
2022-12-14T13:03:58.508Z,-4.66
2022-12-14T13:09:07.775Z,-4.78
2022-12-14T13:14:21.472Z,-4.89
2022-12-14T13:24:58.829Z,-5.10
2022-12-14T13:30:22.154Z,-5.11
2022-12-14T13:35:44.699Z,-5.16
2022-12-14T13:41:02.708Z,-5.20
2022-12-14T13:46:11.734Z,-5.27
2022-12-14T13:51:25.458Z,-5.32
2022-12-14T13:56:33.272Z,-5.38
2022-12-14T14:02:00.649Z,-5.47
2022-12-14T14:07:36.368Z,-5.42
2022-12-14T14:12:41.191Z,-5.30
2022-12-14T14:17:46.122Z,-5.40
2022-12-14T14:23:28.378Z,-5.56
2022-12-14T14:28:30.923Z,-5.63
2022-12-14T14:33:47.086Z,-5.68
2022-12-14T14:38:50.855Z,-5.86
2022-12-14T14:43:54.482Z,-5.98
2022-12-14T14:48:58.108Z,-6.04
2022-12-14T14:59:58.824Z,-5.97
2022-12-14T15:05:33.187Z,-6.08
2022-12-14T15:10:31.451Z,-6.29
2022-12-14T15:15:37.228Z,-6.42
2022-12-14T15:20:41.085Z,-6.53
2022-12-14T15:25:43.795Z,-6.62
2022-12-14T15:30:47.882Z,-6.67
2022-12-14T15:35:51.996Z,-6.84
2022-12-14T15:40:56.338Z,-6.90
2022-12-14T15:46:03.189Z,-6.95
2022-12-14T15:51:11.444Z,-7.09
2022-12-14T15:56:23.615Z,-7.18
2022-12-14T16:01:30.486Z,-7.36
2022-12-14T16:06:39.933Z,-7.42
2022-12-14T16:11:44.474Z,-7.45
2022-12-14T16:16:47.690Z,-7.40
2022-12-14T16:22:13.868Z,-7.23
2022-12-14T16:27:20.061Z,-7.25
2022-12-14T16:32:23.241Z,-7.30
2022-12-14T16:37:32.511Z,-7.35
2022-12-14T16:42:36.835Z,-7.33
2022-12-14T16:48:03.568Z,-7.49
2022-12-14T16:53:17.504Z,-7.47
2022-12-14T16:58:19.912Z,-7.59
2022-12-14T17:03:23.584Z,-7.42
2022-12-14T17:08:27.230Z,-7.46
2022-12-14T17:13:30.121Z,-7.63
2022-12-14T17:18:34.798Z,-7.73
2022-12-14T17:23:41.981Z,-7.87
2022-12-14T17:28:44.184Z,-7.94
2022-12-14T17:33:46.506Z,-7.96
2022-12-14T17:38:50.183Z,-8.13
2022-12-14T17:43:57.025Z,-8.12
2022-12-14T17:49:06.018Z,-8.19
2022-12-14T17:54:16.903Z,-8.37
2022-12-14T17:59:19.167Z,-8.49
2022-12-14T18:04:21.708Z,-8.52
2022-12-14T18:09:25.171Z,-8.63
2022-12-14T18:14:27.412Z,-8.73
2022-12-14T18:19:29.627Z,-8.81
2022-12-14T18:24:34.225Z,-8.95
2022-12-14T18:29:36.687Z,-9.04
2022-12-14T18:34:39.134Z,-8.68
2022-12-14T18:39:43.457Z,-8.40
2022-12-14T18:44:51.487Z,-8.32
2022-12-14T18:49:53.923Z,-8.41
2022-12-14T18:54:58.039Z,-8.43
2022-12-14T19:00:00.263Z,-8.43
2022-12-14T19:05:02.277Z,-8.54
2022-12-14T19:10:06.222Z,-8.49
2022-12-14T19:15:14.206Z,-8.85
2022-12-14T19:20:17.725Z,-8.89
2022-12-14T19:25:22.496Z,-8.89
2022-12-14T19:30:25.590Z,-9.06
2022-12-14T19:35:28.338Z,-9.22
2022-12-14T19:40:32.159Z,-9.22
2022-12-14T19:45:34.543Z,-9.42
2022-12-14T19:50:36.775Z,-9.32
2022-12-14T19:55:41.115Z,-9.41
2022-12-14T20:00:43.927Z,-9.53
2022-12-14T20:05:53.190Z,-9.65
2022-12-14T20:10:57.803Z,-9.81
2022-12-14T20:16:00.265Z,-9.75
2022-12-14T20:21:03.732Z,-9.77
2022-12-14T20:26:09.787Z,-9.83
2022-12-14T20:31:14.065Z,-10.02
2022-12-14T20:36:17.466Z,-10.01
2022-12-14T20:41:21.154Z,-10.11
2022-12-14T20:46:30.862Z,-10.27
2022-12-14T20:51:34.758Z,-10.34
2022-12-14T21:03:08.203Z,-10.46
2022-12-14T21:08:11.518Z,-10.48
2022-12-14T21:13:13.677Z,-10.63
2022-12-14T21:18:16.994Z,-10.74
2022-12-14T21:23:19.139Z,-10.73
2022-12-14T21:28:21.315Z,-10.73
2022-12-14T21:33:24.814Z,-10.78
2022-12-14T21:38:27.975Z,-10.90
2022-12-14T21:43:30.039Z,-10.99
2022-12-14T21:48:35.514Z,-11.13
2022-12-14T21:53:38.168Z,-11.21
2022-12-14T21:58:40.516Z,-11.13
2022-12-14T22:03:44.201Z,-11.13
2022-12-14T22:08:51.808Z,-11.25
2022-12-14T22:13:53.967Z,-11.30
2022-12-14T22:18:57.680Z,-11.45
2022-12-14T22:23:59.403Z,-11.34
2022-12-14T22:29:01.512Z,-11.35
2022-12-14T22:34:05.548Z,-11.37
2022-12-14T22:39:07.624Z,-11.46
2022-12-14T22:44:11.591Z,-11.73
2022-12-14T22:49:18.175Z,-11.75
2022-12-14T22:54:23.873Z,-11.65
2022-12-14T22:59:30.325Z,-11.71
2022-12-14T23:04:34.326Z,-11.75
2022-12-14T23:09:36.836Z,-11.79
2022-12-14T23:14:39.058Z,-11.86
2022-12-14T23:19:42.187Z,-11.91
2022-12-14T23:24:44.405Z,-11.90
2022-12-14T23:29:46.522Z,-11.90
2022-12-14T23:34:50.056Z,-12.02
2022-12-14T23:39:52.267Z,-12.24
2022-12-14T23:44:54.350Z,-12.21
2022-12-14T23:49:58.075Z,-12.21
2022-12-14T23:55:00.314Z,-12.22
